Time;durP1;ratioP1;P1;durP2;ratioP2;P2;SDS_P1;SDS_P2;PMS_P1;PMS_P2;Temp;Humidity;BMP_temperature;BMP_pressure;BME280_temperature;BME280_humidity;BME280_pressure;Samples;Min_cycle;Max_cycle;Signal;HPM_P1;HPM_P2
2022/11/13 00:02:00;;;;;;;17.23;12.27;;;4.50;99.90;;;;;;5086290;28;20090;-83
2022/11/13 00:04:26;;;;;;;19.63;12.32;;;5.10;99.90;;;;;;5086241;28;20040;-83
2022/11/13 00:06:51;;;;;;;20.25;12.85;;;4.50;99.90;;;;;;5068042;28;20473;-84
2022/11/13 00:09:17;;;;;;;18.55;13.23;;;4.50;99.90;;;;;;5086704;28;20395;-84
2022/11/13 00:11:43;;;;;;;21.67;13.48;;;5.10;99.90;;;;;;5067450;28;20044;-83
2022/11/13 00:14:08;;;;;;;18.58;13.52;;;5.60;99.90;;;;;;5067409;28;20051;-84
2022/11/13 00:16:34;;;;;;;22.00;15.15;;;4.60;99.90;;;;;;5050406;28;20048;-82
2022/11/13 00:19:00;;;;;;;19.10;13.60;;;4.60;99.90;;;;;;5067786;28;20102;-82
2022/11/13 00:21:26;;;;;;;22.27;13.73;;;4.60;99.90;;;;;;5067836;28;20089;-82
2022/11/13 00:23:52;;;;;;;19.83;13.95;;;5.20;99.90;;;;;;5085665;28;20482;-83
2022/11/13 00:26:28;;;;;;;19.00;13.00;;;4.60;99.90;;;;;;5067867;28;20044;-83
2022/11/13 00:28:59;;;;;;;18.98;13.77;;;5.50;99.90;;;;;;5085419;28;20402;-83
2022/11/13 00:31:25;;;;;;;22.90;14.52;;;4.60;99.90;;;;;;5085168;28;20044;-83
2022/11/13 00:33:51;;;;;;;25.25;15.18;;;4.60;99.90;;;;;;5085423;28;20051;-83
2022/11/13 00:36:20;;;;;;;18.58;13.48;;;5.80;99.90;;;;;;5050408;28;20592;-83
2022/11/13 00:38:46;;;;;;;19.40;13.20;;;4.70;99.90;;;;;;5067632;28;20040;-83
2022/11/13 00:41:12;;;;;;;20.55;13.52;;;4.80;99.90;;;;;;5067437;28;20044;-82
2022/11/13 00:43:37;;;;;;;18.75;13.02;;;4.80;99.90;;;;;;5085733;28;20040;-82
2022/11/13 00:46:04;;;;;;;21.73;15.15;;;6.00;99.90;;;;;;5084757;28;20113;-82
2022/11/13 00:48:29;;;;;;;21.67;15.05;;;4.80;99.90;;;;;;5067089;28;20075;-82
2022/11/13 00:50:55;;;;;;;21.90;14.88;;;4.90;99.90;;;;;;5084622;28;20082;-82
2022/11/13 00:53:21;;;;;;;29.23;16.27;;;5.90;99.90;;;;;;5085123;28;20521;-82
2022/11/13 00:55:47;;;;;;;29.67;15.30;;;5.00;99.90;;;;;;5050178;28;20048;-82
2022/11/13 00:58:13;;;;;;;30.70;17.15;;;4.70;99.90;;;;;;5066797;28;20075;-82
2022/11/13 01:00:41;;;;;;;26.45;17.13;;;5.00;99.90;;;;;;5085183;28;20074;-81
2022/11/13 01:03:07;;;;;;;29.08;17.58;;;6.10;99.90;;;;;;5084343;28;20039;-82
2022/11/13 01:05:38;;;;;;;22.15;16.85;;;5.10;99.90;;;;;;5066427;28;20063;-81
2022/11/13 01:08:04;;;;;;;27.42;17.20;;;5.20;99.90;;;;;;5084446;28;20131;-82
2022/11/13 01:10:31;;;;;;;39.65;18.83;;;5.80;99.90;;;;;;5084452;28;20475;-83
2022/11/13 01:12:57;;;;;;;26.80;17.35;;;6.10;99.90;;;;;;5066563;28;20104;-83
2022/11/13 01:15:22;;;;;;;27.70;18.15;;;5.30;99.90;;;;;;5084520;28;20701;-83
2022/11/13 01:17:49;;;;;;;25.25;16.58;;;6.30;99.90;;;;;;5085102;28;20043;-83
2022/11/13 01:20:15;;;;;;;29.95;19.85;;;6.40;99.90;;;;;;5084000;28;20039;-83
2022/11/13 01:22:40;;;;;;;32.55;19.00;;;5.40;99.90;;;;;;5084360;28;20051;-83
2022/11/13 01:25:06;;;;;;;36.80;20.42;;;5.50;99.90;;;;;;5065981;28;20044;-83
2022/11/13 01:27:35;;;;;;;31.13;19.50;;;5.50;99.90;;;;;;5065964;28;20119;-83
2022/11/13 01:30:01;;;;;;;28.90;17.85;;;6.70;99.90;;;;;;5083983;28;20604;-83
2022/11/13 01:32:27;;;;;;;28.88;19.00;;;5.70;99.90;;;;;;5065827;28;20084;-83
2022/11/13 01:34:53;;;;;;;27.13;18.35;;;5.80;99.90;;;;;;5084469;28;20136;-83
2022/11/13 01:37:18;;;;;;;37.40;18.08;;;5.70;99.90;;;;;;5065594;28;20097;-82
2022/11/13 01:39:44;;;;;;;28.65;18.08;;;6.40;99.90;;;;;;5066179;28;20032;-83
2022/11/13 01:42:12;;;;;;;27.40;19.08;;;5.90;99.90;;;;;;5084060;28;20047;-82
2022/11/13 01:45:23;;;;;;;31.83;18.67;;;6.80;99.90;;;;;;5049286;28;20096;-83
2022/11/13 01:47:49;;;;;;;28.60;18.95;;;6.00;99.90;;;;;;5063164;28;20055;-83
2022/11/13 01:50:15;;;;;;;27.15;18.15;;;6.00;99.90;;;;;;5048759;28;20048;-82
2022/11/13 01:52:41;;;;;;;27.60;18.35;;;6.00;99.90;;;;;;5084316;28;20055;-82
2022/11/13 01:55:14;;;;;;;27.67;17.90;;;6.00;99.90;;;;;;5083749;28;20131;-83
2022/11/13 01:57:40;;;;;;;29.08;17.95;;;7.00;99.90;;;;;;5066066;28;20048;-80
2022/11/13 02:00:10;;;;;;;25.55;16.55;;;6.10;99.90;;;;;;5084181;28;20036;-83
2022/11/13 02:02:36;;;;;;;27.33;18.25;;;6.10;99.90;;;;;;5084037;28;20135;-83
2022/11/13 02:05:02;;;;;;;26.27;16.75;;;6.20;99.90;;;;;;5084266;28;20074;-83
2022/11/13 02:07:28;;;;;;;23.65;16.77;;;6.20;99.90;;;;;;5065544;28;20040;-83
2022/11/13 02:09:56;;;;;;;26.05;16.88;;;7.10;99.90;;;;;;5065931;28;20540;-83
2022/11/13 02:12:31;;;;;;;27.85;16.50;;;6.70;99.90;;;;;;5065350;28;20044;-83
2022/11/13 02:14:58;;;;;;;24.45;16.40;;;6.30;99.90;;;;;;5065322;28;20051;-83
2022/11/13 02:17:31;;;;;;;29.23;16.67;;;6.30;99.90;;;;;;5084043;28;20047;-83
2022/11/13 02:20:00;;;;;;;22.85;16.25;;;6.20;99.90;;;;;;5065370;28;20083;-83
2022/11/13 02:22:42;;;;;;;25.77;14.55;;;7.00;99.90;;;;;;5084120;28;20110;-83
2022/11/13 02:25:10;;;;;;;24.85;16.02;;;6.20;99.90;;;;;;5065456;28;20040;-82
2022/11/13 02:27:44;;;;;;;26.25;15.55;;;6.90;99.90;;;;;;5083749;28;20097;-83
2022/11/13 02:30:30;;;;;;;21.25;15.20;;;6.20;99.90;;;;;;5083700;28;20040;-83
2022/11/13 02:32:57;;;;;;;25.02;16.35;;;6.20;99.90;;;;;;5083018;28;20126;-83
2022/11/13 02:35:30;;;;;;;19.90;15.15;;;7.00;99.90;;;;;;5083757;28;20051;-83
2022/11/13 02:38:00;;;;;;;23.50;15.52;;;6.20;99.90;;;;;;5064966;28;20044;-83
2022/11/13 02:40:26;;;;;;;22.45;15.52;;;7.30;99.90;;;;;;5083505;28;20033;-83
2022/11/13 02:42:52;;;;;;;23.20;16.33;;;7.00;99.90;;;;;;5083722;28;20036;-83
2022/11/13 02:45:18;;;;;;;21.95;15.25;;;6.60;99.90;;;;;;5065364;28;20046;-83
2022/11/13 02:47:43;;;;;;;22.20;16.10;;;6.10;99.90;;;;;;5084107;28;20029;-83
2022/11/13 02:50:10;;;;;;;29.40;15.45;;;6.30;99.90;;;;;;5082813;28;20468;-82
2022/11/13 02:52:36;;;;;;;23.27;14.95;;;6.60;99.90;;;;;;5065592;28;20114;-83
2022/11/13 02:55:02;;;;;;;20.98;14.98;;;7.30;99.90;;;;;;5083222;28;20131;-83
2022/11/13 02:57:28;;;;;;;23.88;15.82;;;6.10;99.90;;;;;;5083367;28;20048;-83
2022/11/13 02:59:53;;;;;;;26.50;15.85;;;6.10;99.90;;;;;;5085421;28;20055;-83
2022/11/13 03:02:19;;;;;;;24.25;14.82;;;6.10;99.90;;;;;;5068921;28;20040;-83
2022/11/13 03:04:45;;;;;;;28.30;16.20;;;6.80;99.90;;;;;;5087518;28;20047;-83
2022/11/13 03:07:12;;;;;;;24.55;15.30;;;6.30;99.90;;;;;;5087160;28;20079;-83
2022/11/13 03:09:38;;;;;;;22.73;14.93;;;7.00;99.90;;;;;;5087295;28;20273;-84
2022/11/13 03:12:05;;;;;;;22.33;14.73;;;6.10;99.90;;;;;;5087149;28;20044;-82
2022/11/13 03:14:31;;;;;;;20.75;14.60;;;6.10;99.90;;;;;;5068960;28;20051;-83
2022/11/13 03:16:57;;;;;;;22.85;15.57;;;6.10;99.90;;;;;;5068835;28;20063;-82
2022/11/13 03:19:23;;;;;;;19.88;13.70;;;6.60;99.90;;;;;;5068952;28;20402;-83
2022/11/13 03:21:49;;;;;;;23.23;15.57;;;6.20;99.90;;;;;;5087189;28;20044;-83
2022/11/13 03:24:14;;;;;;;22.30;15.15;;;7.20;99.90;;;;;;5086710;28;20032;-82
2022/11/13 03:26:40;;;;;;;21.08;14.40;;;6.60;99.90;;;;;;5068835;28;20582;-83
2022/11/13 03:29:06;;;;;;;20.23;13.90;;;6.10;99.90;;;;;;5068406;28;20044;-83
2022/11/13 03:31:31;;;;;;;19.85;14.68;;;6.10;99.90;;;;;;5068610;28;20044;-83
2022/11/13 03:33:58;;;;;;;22.02;14.35;;;6.50;99.90;;;;;;5086578;28;20062;-83
2022/11/13 03:36:23;;;;;;;22.10;14.25;;;6.90;99.90;;;;;;5086773;28;20036;-83
2022/11/13 03:38:49;;;;;;;22.00;14.57;;;6.10;99.90;;;;;;5086872;28;20113;-82
2022/11/13 03:41:15;;;;;;;21.90;14.77;;;6.20;99.90;;;;;;5086312;28;20506;-83
2022/11/13 03:43:41;;;;;;;23.73;12.85;;;6.20;99.90;;;;;;5068577;28;20048;-83
2022/11/13 03:46:08;;;;;;;20.60;14.82;;;6.80;99.90;;;;;;5086145;28;20050;-83
2022/11/13 03:48:34;;;;;;;20.05;13.57;;;6.20;99.90;;;;;;5086109;28;20090;-83
2022/11/13 03:51:00;;;;;;;23.55;14.45;;;6.90;99.90;;;;;;5086401;28;20084;-83
2022/11/13 03:53:26;;;;;;;22.17;14.63;;;6.70;99.90;;;;;;5068319;28;20491;-84
2022/11/13 03:55:51;;;;;;;19.10;12.88;;;6.70;99.90;;;;;;5068396;28;20050;-83
2022/11/13 03:58:17;;;;;;;19.75;13.70;;;6.40;99.90;;;;;;5086355;28;20070;-83
2022/11/13 04:00:44;;;;;;;21.02;13.85;;;7.00;99.90;;;;;;5068264;28;20506;-84
2022/11/13 04:03:10;;;;;;;18.30;13.13;;;6.20;99.90;;;;;;5085871;28;20084;-83
2022/11/13 04:05:37;;;;;;;21.80;14.13;;;7.10;99.90;;;;;;5067948;28;20036;-83
2022/11/13 04:08:02;;;;;;;17.88;13.32;;;6.80;99.90;;;;;;5067335;28;20534;-83
2022/11/13 04:10:28;;;;;;;17.45;12.73;;;6.20;99.90;;;;;;5085714;28;20048;-84
2022/11/13 04:12:54;;;;;;;20.17;13.82;;;7.20;99.90;;;;;;5086188;28;20067;-83
2022/11/13 04:15:20;;;;;;;18.33;12.55;;;6.20;99.90;;;;;;5067760;28;20047;-83
2022/11/13 04:17:46;;;;;;;24.75;13.45;;;6.20;99.90;;;;;;5086575;28;20386;-83
2022/11/13 04:20:12;;;;;;;19.25;13.30;;;7.20;99.90;;;;;;5085628;28;20040;-83
2022/11/13 04:22:38;;;;;;;22.13;14.20;;;7.10;99.90;;;;;;5085910;28;20403;-84
2022/11/13 04:25:05;;;;;;;20.00;13.40;;;7.00;99.90;;;;;;5067315;28;20047;-83
2022/11/13 04:27:30;;;;;;;21.40;13.27;;;6.20;99.90;;;;;;5085731;28;20055;-84
2022/11/13 04:29:56;;;;;;;19.73;12.60;;;7.20;99.90;;;;;;5085845;28;20040;-83
2022/11/13 04:32:22;;;;;;;23.60;14.20;;;6.20;99.90;;;;;;5067127;28;20052;-83
2022/11/13 04:34:48;;;;;;;21.13;12.55;;;7.10;99.90;;;;;;5085913;28;20044;-84
2022/11/13 04:37:13;;;;;;;17.80;12.90;;;6.50;99.90;;;;;;5066798;28;20052;-81
2022/11/13 04:39:39;;;;;;;21.48;12.55;;;6.90;99.90;;;;;;5085724;28;20044;-82
2022/11/13 04:44:49;;;;;;;20.90;13.70;;;6.40;99.90;;;;;;5067373;28;20052;-82
2022/11/13 04:47:15;;;;;;;17.83;12.48;;;6.20;99.90;;;;;;5085866;28;20043;-82
2022/11/13 04:49:40;;;;;;;16.58;12.00;;;7.30;99.90;;;;;;5067080;28;20086;-83
2022/11/13 04:52:06;;;;;;;16.27;11.68;;;7.10;99.90;;;;;;5051227;28;20040;-84
2022/11/13 04:54:33;;;;;;;17.05;12.63;;;6.20;99.90;;;;;;5066798;28;20506;-84
2022/11/13 04:56:58;;;;;;;17.88;12.32;;;6.80;99.90;;;;;;5085965;28;20044;-84
2022/11/13 04:59:24;;;;;;;21.95;12.50;;;6.20;99.90;;;;;;5067073;28;20048;-84
2022/11/13 05:01:50;;;;;;;18.98;13.75;;;7.00;99.90;;;;;;5085910;28;20067;-84
2022/11/13 05:04:15;;;;;;;15.02;11.52;;;6.10;99.90;;;;;;5085601;28;20093;-83
2022/11/13 05:06:41;;;;;;;22.05;11.70;;;6.80;99.90;;;;;;5085677;28;20089;-84
2022/11/13 05:09:07;;;;;;;18.73;12.18;;;6.10;99.90;;;;;;5085851;28;20090;-84
2022/11/13 05:11:33;;;;;;;16.98;12.60;;;6.10;99.90;;;;;;5066931;28;20109;-84
2022/11/13 05:13:59;;;;;;;20.10;12.15;;;6.10;99.90;;;;;;5050433;28;20036;-83
2022/11/13 05:16:24;;;;;;;20.67;13.07;;;6.50;99.90;;;;;;5084738;28;20091;-83
2022/11/13 05:18:50;;;;;;;18.83;11.95;;;6.90;99.90;;;;;;5084950;28;20043;-83
2022/11/13 05:21:16;;;;;;;17.92;12.20;;;7.00;99.90;;;;;;5066495;28;20208;-83
2022/11/13 05:23:42;;;;;;;16.42;12.70;;;7.00;99.90;;;;;;5084588;28;20132;-83
2022/11/13 05:26:11;;;;;;;17.65;12.02;;;7.00;99.90;;;;;;5067283;28;20624;-83
2022/11/13 05:28:37;;;;;;;20.33;12.25;;;6.90;99.90;;;;;;5066265;28;20043;-83
2022/11/13 05:31:14;;;;;;;17.42;12.63;;;6.00;99.90;;;;;;5085087;28;20052;-84
2022/11/13 05:33:41;;;;;;;20.17;13.32;;;6.00;99.90;;;;;;5084189;28;20056;-83
2022/11/13 05:36:09;;;;;;;19.67;12.07;;;6.50;99.90;;;;;;5066366;28;20048;-83
2022/11/13 05:38:35;;;;;;;20.13;13.00;;;5.90;99.90;;;;;;5084700;28;20058;-83
2022/11/13 05:41:09;;;;;;;17.63;11.35;;;6.70;99.90;;;;;;5049752;28;20118;-84
2022/11/13 05:43:36;;;;;;;17.88;12.57;;;5.80;99.90;;;;;;5084448;28;20126;-83
2022/11/13 05:46:15;;;;;;;18.60;11.43;;;5.80;99.90;;;;;;5083901;28;20488;-83
2022/11/13 05:48:42;;;;;;;17.63;12.15;;;5.80;99.90;;;;;;5065754;28;20471;-83
2022/11/13 05:51:09;;;;;;;21.65;11.15;;;6.40;99.90;;;;;;5057963;28;20055;-83
2022/11/13 05:53:36;;;;;;;16.33;11.65;;;5.70;99.90;;;;;;5084768;28;20505;-83
2022/11/13 05:56:04;;;;;;;21.65;12.30;;;6.70;99.90;;;;;;5084433;28;20046;-84
2022/11/13 05:58:31;;;;;;;22.08;11.68;;;5.70;99.90;;;;;;5084370;28;20376;-84
2022/11/13 06:01:12;;;;;;;22.60;12.93;;;5.70;99.90;;;;;;5084481;28;20135;-83
2022/11/13 06:03:38;;;;;;;21.63;12.35;;;5.70;99.90;;;;;;5065793;28;20051;-83
2022/11/13 06:06:09;;;;;;;21.17;12.73;;;6.40;99.90;;;;;;5065858;28;20055;-83
2022/11/13 06:08:34;;;;;;;21.50;11.57;;;5.60;99.90;;;;;;5065733;28;20487;-83
2022/11/13 06:11:08;;;;;;;22.17;12.77;;;5.60;99.90;;;;;;5066123;28;20123;-83
2022/11/13 06:13:35;;;;;;;19.35;12.13;;;5.60;99.90;;;;;;5049191;28;20483;-84
2022/11/13 06:16:06;;;;;;;20.02;12.55;;;5.60;99.90;;;;;;5083708;28;20047;-84
2022/11/13 06:18:32;;;;;;;15.48;10.65;;;6.60;99.90;;;;;;5083649;28;20112;-84
2022/11/13 06:21:03;;;;;;;15.95;11.43;;;6.40;99.90;;;;;;5066164;28;20090;-86
2022/11/13 06:23:31;;;;;;;15.98;11.15;;;5.50;99.90;;;;;;5050566;28;20517;-86
2022/11/13 06:26:23;;;;;;;17.33;11.32;;;5.50;99.90;;;;;;5050016;28;20047;-84
2022/11/13 06:28:48;;;;;;;18.33;12.55;;;5.50;99.90;;;;;;5069039;28;20111;-84
2022/11/13 06:31:21;;;;;;;17.40;11.30;;;5.50;99.90;;;;;;5065764;28;20181;-83
2022/11/13 06:33:47;;;;;;;16.40;12.00;;;5.40;99.90;;;;;;5067444;28;20131;-84
2022/11/13 06:36:22;;;;;;;19.42;11.27;;;6.40;99.90;;;;;;5088413;28;20052;-84
2022/11/13 06:38:49;;;;;;;17.08;11.57;;;6.20;99.90;;;;;;5069841;28;20063;-84
2022/11/13 06:41:17;;;;;;;20.48;11.75;;;6.00;99.90;;;;;;5088171;28;20047;-84
2022/11/13 06:43:43;;;;;;;16.27;10.57;;;5.80;99.90;;;;;;5087978;28;20395;-82
2022/11/13 06:46:13;;;;;;;15.57;10.27;;;5.20;99.90;;;;;;5087475;28;20040;-83
2022/11/13 06:48:39;;;;;;;17.33;10.45;;;6.10;99.90;;;;;;5087452;28;20046;-83
2022/11/13 06:51:07;;;;;;;20.00;11.85;;;6.10;99.90;;;;;;5087522;28;20127;-84
2022/11/13 06:53:33;;;;;;;14.93;10.18;;;6.40;99.90;;;;;;5087512;28;20131;-83
2022/11/13 06:55:59;;;;;;;14.65;11.07;;;5.10;99.90;;;;;;5068810;28;20127;-82
2022/11/13 06:58:25;;;;;;;18.50;10.43;;;5.10;99.90;;;;;;5087265;28;20032;-82
2022/11/13 07:00:52;;;;;;;13.50;10.80;;;5.70;99.90;;;;;;5087593;28;20058;-84
2022/11/13 07:03:19;;;;;;;14.73;11.00;;;5.00;99.90;;;;;;5087288;28;20040;-85
2022/11/13 07:05:46;;;;;;;16.67;10.75;;;5.10;99.90;;;;;;5036099;28;20040;-83
2022/11/13 07:08:12;;;;;;;15.10;11.18;;;5.90;99.90;;;;;;5087607;28;20036;-82
2022/11/13 07:10:41;;;;;;;17.42;10.65;;;5.00;99.90;;;;;;5050424;28;20118;-82
2022/11/13 07:13:08;;;;;;;13.35;10.55;;;5.00;99.90;;;;;;5051963;28;20052;-81
2022/11/13 07:15:38;;;;;;;23.48;11.80;;;6.00;99.90;;;;;;5067371;28;20072;-82
2022/11/13 07:18:05;;;;;;;17.00;10.82;;;4.90;99.90;;;;;;5068806;28;20055;-82
2022/11/13 07:20:32;;;;;;;16.58;10.38;;;5.90;99.90;;;;;;5086351;28;20374;-81
2022/11/13 07:23:00;;;;;;;14.63;10.75;;;4.90;99.90;;;;;;5086943;28;20032;-81
2022/11/13 07:25:26;;;;;;;17.88;10.88;;;5.30;99.90;;;;;;5067984;28;20076;-81
2022/11/13 07:27:52;;;;;;;18.55;11.05;;;4.90;99.90;;;;;;5085201;28;20040;-81
2022/11/13 07:30:18;;;;;;;16.73;12.15;;;6.10;99.90;;;;;;5051969;28;20071;-81
2022/11/13 07:32:44;;;;;;;20.50;11.88;;;5.00;99.90;;;;;;5086550;28;20052;-82
2022/11/13 07:35:10;;;;;;;19.70;12.20;;;5.00;99.90;;;;;;5087231;28;20056;-84
2022/11/13 07:37:36;;;;;;;19.42;12.15;;;5.10;99.90;;;;;;5086270;28;20376;-82
2022/11/13 07:40:03;;;;;;;22.60;11.85;;;5.10;99.90;;;;;;5051496;28;20044;-82
2022/11/13 07:42:29;;;;;;;15.73;11.45;;;5.20;99.90;;;;;;5068349;28;20044;-82
2022/11/13 07:44:55;;;;;;;21.58;12.05;;;5.80;99.90;;;;;;5085924;28;20032;-82
2022/11/13 07:47:21;;;;;;;19.25;11.75;;;5.70;99.90;;;;;;5068275;28;20040;-81
2022/11/13 07:49:46;;;;;;;18.05;12.05;;;5.70;99.90;;;;;;5086566;28;20048;-83
2022/11/13 07:52:12;;;;;;;19.23;12.38;;;5.90;99.90;;;;;;5086903;28;20047;-82
2022/11/13 07:54:38;;;;;;;24.15;12.15;;;5.70;99.90;;;;;;5068176;28;20062;-85
2022/11/13 07:57:03;;;;;;;19.50;12.18;;;5.40;99.90;;;;;;5034923;28;20051;-82
2022/11/13 07:59:29;;;;;;;22.90;12.77;;;6.00;99.90;;;;;;5086505;28;20048;-83
2022/11/13 08:01:54;;;;;;;29.48;18.67;;;5.40;99.90;;;;;;5068357;28;20799;-83
2022/11/13 08:04:20;;;;;;;20.50;11.50;;;6.40;99.90;;;;;;5068883;28;20067;-85
2022/11/13 08:06:46;;;;;;;19.23;12.07;;;5.60;99.90;;;;;;5035616;28;20036;-84
2022/11/13 08:09:12;;;;;;;19.23;12.73;;;6.70;99.90;;;;;;5067879;28;20465;-84
2022/11/13 08:11:37;;;;;;;21.88;12.40;;;6.50;99.90;;;;;;5054567;28;20040;-81
2022/11/13 08:14:03;;;;;;;20.42;12.13;;;5.80;99.90;;;;;;5069213;28;20048;-83
2022/11/13 08:16:29;;;;;;;18.63;12.13;;;5.90;99.90;;;;;;5068445;28;20067;-84
2022/11/13 08:18:54;;;;;;;20.83;12.23;;;5.90;99.90;;;;;;5051711;28;20048;-84
2022/11/13 08:21:20;;;;;;;17.42;13.27;;;6.40;99.90;;;;;;5067292;28;20337;-82
2022/11/13 08:23:46;;;;;;;15.85;11.65;;;6.80;99.90;;;;;;5086183;28;20448;-84
2022/11/13 08:26:12;;;;;;;19.02;12.85;;;6.70;99.90;;;;;;5086065;28;20044;-83
2022/11/13 08:28:39;;;;;;;17.67;12.10;;;6.30;99.90;;;;;;5086307;28;20111;-82
2022/11/13 08:31:10;;;;;;;18.23;12.05;;;6.40;99.90;;;;;;5068122;28;20521;-83
2022/11/13 08:33:35;;;;;;;23.08;12.98;;;6.50;99.90;;;;;;5085851;28;20063;-83
2022/11/13 08:36:01;;;;;;;18.27;12.02;;;6.60;99.90;;;;;;5051904;28;20044;-84
2022/11/13 08:38:27;;;;;;;16.23;11.18;;;6.70;99.90;;;;;;5068717;28;20472;-86
2022/11/13 08:40:56;;;;;;;19.48;11.23;;;6.80;99.90;;;;;;5068284;28;20052;-85
2022/11/13 08:43:22;;;;;;;22.80;12.43;;;7.50;99.90;;;;;;5086878;28;20121;-85
2022/11/13 08:45:47;;;;;;;22.48;11.05;;;8.00;99.90;;;;;;5050885;28;20442;-83
2022/11/13 08:48:13;;;;;;;13.35;10.35;;;8.10;99.90;;;;;;5051873;28;20088;-86
2022/11/13 08:50:39;;;;;;;17.33;10.95;;;7.30;99.90;;;;;;5051233;28;20190;-86
2022/11/13 08:53:05;;;;;;;16.02;10.90;;;7.50;99.90;;;;;;5067762;28;20093;-87
2022/11/13 08:55:32;;;;;;;13.30;9.40;;;7.70;99.90;;;;;;5034772;28;20075;-86
2022/11/13 08:58:00;;;;;;;11.75;8.93;;;7.80;99.90;;;;;;5051170;28;20139;-86
2022/11/13 09:00:27;;;;;;;14.68;8.80;;;8.00;99.90;;;;;;5051038;28;20050;-87
2022/11/13 09:02:54;;;;;;;15.32;8.43;;;8.90;99.90;;;;;;5050663;28;20040;-85
2022/11/13 09:05:20;;;;;;;12.38;8.20;;;8.30;99.90;;;;;;5051164;28;20136;-87
2022/11/13 09:07:46;;;;;;;13.10;7.60;;;8.40;99.90;;;;;;5034183;28;20138;-87
2022/11/13 09:10:12;;;;;;;12.70;8.43;;;8.40;99.90;;;;;;5017175;28;20321;-87
2022/11/13 09:12:37;;;;;;;12.23;8.90;;;8.50;99.90;;;;;;5049741;28;20036;-88
2022/11/13 09:15:04;;;;;;;11.95;8.60;;;9.20;99.90;;;;;;5067226;28;20463;-87
2022/11/13 09:17:30;;;;;;;10.52;8.30;;;8.70;99.90;;;;;;5050322;28;20044;-87
2022/11/13 09:19:55;;;;;;;11.20;8.13;;;8.10;99.90;;;;;;5033736;28;20557;-87
2022/11/13 09:22:21;;;;;;;11.40;7.88;;;9.20;99.90;;;;;;5067249;28;20051;-87
2022/11/13 09:24:47;;;;;;;12.48;7.88;;;9.20;99.90;;;;;;5050117;28;20036;-87
2022/11/13 09:27:13;;;;;;;9.75;7.82;;;9.20;99.90;;;;;;5050137;28;20110;-87
2022/11/13 09:29:39;;;;;;;12.38;8.82;;;9.30;99.90;;;;;;5066839;28;20040;-87
2022/11/13 09:32:04;;;;;;;12.13;7.57;;;9.40;99.90;;;;;;5051113;28;20032;-87
2022/11/13 09:34:32;;;;;;;8.90;6.95;;;9.40;99.90;;;;;;5050311;28;20135;-88
2022/11/13 09:36:58;;;;;;;10.50;7.25;;;9.50;99.90;;;;;;5066495;28;20055;-87
2022/11/13 09:39:23;;;;;;;9.52;7.35;;;9.80;99.90;;;;;;5033656;28;20044;-87
2022/11/13 09:41:57;;;;;;;13.98;8.63;;;9.70;99.90;;;;;;5033264;28;20051;-87
2022/11/13 09:44:51;;;;;;;10.02;7.72;;;9.80;99.90;;;;;;5050122;28;20040;-88
2022/11/13 09:47:20;;;;;;;11.35;7.93;;;9.90;99.90;;;;;;5043143;28;20478;-87
2022/11/13 09:49:53;;;;;;;11.55;7.15;;;10.90;99.90;;;;;;5067269;28;20074;-90
2022/11/13 09:52:36;;;;;;;10.65;7.43;;;10.00;99.90;;;;;;5050311;28;20040;-90
2022/11/13 09:55:03;;;;;;;11.63;5.75;;;10.10;99.90;;;;;;5049803;28;20043;-87
2022/11/13 09:57:45;;;;;;;12.95;7.45;;;10.20;99.90;;;;;;5050237;28;20050;-90
2022/11/13 10:00:13;;;;;;;6.87;5.40;;;10.30;99.90;;;;;;5051207;28;20054;-87
2022/11/13 10:03:11;;;;;;;17.38;7.45;;;10.40;99.90;;;;;;5049764;28;20052;-86
2022/11/13 10:05:41;;;;;;;9.80;6.57;;;10.50;99.90;;;;;;5049739;28;20040;-88
2022/11/13 10:08:13;;;;;;;11.15;7.43;;;10.60;99.90;;;;;;5065937;28;20551;-87
2022/11/13 10:11:08;;;;;;;12.07;7.65;;;10.70;99.90;;;;;;5066256;28;20407;-88
2022/11/13 10:13:44;;;;;;;10.30;8.02;;;10.80;99.90;;;;;;5049346;28;20093;-87
2022/11/13 10:16:34;;;;;;;13.23;7.70;;;10.90;99.90;;;;;;5065982;28;20043;-87
2022/11/13 10:19:09;;;;;;;17.85;8.05;;;11.00;99.90;;;;;;5077594;28;20035;-88
2022/11/13 10:21:47;;;;;;;9.70;7.00;;;11.10;99.90;;;;;;5072297;28;20040;-88
2022/11/13 10:24:23;;;;;;;8.40;6.95;;;11.20;99.90;;;;;;5049736;28;20048;-88
2022/11/13 10:26:49;;;;;;;13.73;7.10;;;11.20;99.90;;;;;;5066372;28;20083;-87
2022/11/13 10:29:17;;;;;;;9.35;6.40;;;11.20;99.90;;;;;;5066576;28;20083;-89
2022/11/13 10:31:46;;;;;;;13.18;7.32;;;11.30;99.90;;;;;;5049809;28;20044;-89
2022/11/13 10:34:13;;;;;;;8.65;7.00;;;11.40;99.90;;;;;;5049479;28;20419;-90
2022/11/13 10:36:54;;;;;;;9.13;6.38;;;11.50;99.90;;;;;;5049728;28;20037;-86
2022/11/13 10:39:20;;;;;;;12.63;7.40;;;11.60;99.90;;;;;;5049517;28;20040;-86
2022/11/13 10:41:48;;;;;;;10.10;7.10;;;11.70;99.90;;;;;;5032611;28;20048;-86
2022/11/13 10:44:34;;;;;;;11.13;6.63;;;12.10;99.90;;;;;;5049573;28;20094;-86
2022/11/13 10:47:15;;;;;;;8.65;6.78;;;12.00;99.90;;;;;;5049478;28;20048;-87
2022/11/13 10:49:41;;;;;;;34.47;7.47;;;11.90;99.90;;;;;;5049221;28;20173;-87
2022/11/13 10:52:28;;;;;;;12.07;6.80;;;12.00;99.90;;;;;;5032851;28;20076;-86
2022/11/13 10:55:23;;;;;;;9.30;6.93;;;12.00;99.90;;;;;;5048941;28;20655;-88
2022/11/13 10:57:57;;;;;;;9.70;6.65;;;12.10;99.90;;;;;;5066659;28;20471;-89
2022/11/13 11:00:34;;;;;;;9.63;6.70;;;12.80;99.90;;;;;;5066644;28;20465;-86
2022/11/13 11:03:00;;;;;;;9.20;6.22;;;12.20;99.90;;;;;;5066241;28;20044;-87
2022/11/13 11:05:27;;;;;;;41.05;9.27;;;12.60;99.90;;;;;;5032706;28;20036;-90
2022/11/13 11:07:54;;;;;;;11.18;6.70;;;12.10;99.90;;;;;;5032730;28;20128;-87
2022/11/13 11:10:31;;;;;;;34.42;9.82;;;12.00;99.90;;;;;;5047628;28;20047;-88
2022/11/13 11:13:11;;;;;;;10.57;7.68;;;12.10;99.90;;;;;;5065096;28;20479;-85
2022/11/13 11:15:55;;;;;;;12.43;7.38;;;12.10;99.90;;;;;;5048947;28;20117;-87
2022/11/13 11:18:27;;;;;;;9.52;7.07;;;13.00;99.90;;;;;;5065748;28;20515;-87
2022/11/13 11:20:58;;;;;;;11.90;7.13;;;12.10;99.90;;;;;;5067479;28;20055;-87
2022/11/13 11:23:32;;;;;;;8.82;6.55;;;12.10;99.90;;;;;;5069729;28;20415;-86
2022/11/13 11:26:13;;;;;;;11.02;6.53;;;12.10;99.90;;;;;;5052457;28;20048;-87
2022/11/13 11:28:45;;;;;;;11.43;7.00;;;12.00;99.90;;;;;;5068664;28;20048;-87
2022/11/13 11:31:20;;;;;;;9.70;6.85;;;12.40;99.90;;;;;;5069023;28;20110;-87
2022/11/13 11:34:17;;;;;;;9.15;7.20;;;12.00;99.90;;;;;;5069033;28;20363;-88
2022/11/13 11:37:12;;;;;;;8.52;6.50;;;12.00;99.90;;;;;;5068935;28;20044;-86
2022/11/13 11:40:02;;;;;;;11.55;7.10;;;12.00;99.90;;;;;;5068941;28;20131;-87
2022/11/13 11:43:11;;;;;;;8.00;6.85;;;12.00;99.90;;;;;;5052114;28;20050;-87
2022/11/13 11:45:43;;;;;;;9.90;7.05;;;12.00;99.90;;;;;;5052228;28;20089;-87
2022/11/13 11:48:16;;;;;;;8.90;7.00;;;12.00;99.90;;;;;;5069260;28;20134;-88
2022/11/13 11:51:12;;;;;;;10.70;6.75;;;12.10;99.90;;;;;;5068985;28;20040;-87
2022/11/13 11:54:10;;;;;;;9.45;7.10;;;12.20;99.90;;;;;;5060273;28;20139;-86
2022/11/13 11:56:44;;;;;;;15.93;7.13;;;12.30;99.90;;;;;;5052771;28;20475;-87
2022/11/13 11:59:25;;;;;;;8.20;6.20;;;11.90;99.90;;;;;;5052484;28;20094;-86
2022/11/13 12:02:09;;;;;;;9.65;6.93;;;12.60;99.90;;;;;;5052601;28;20040;-88
2022/11/13 12:05:10;;;;;;;15.32;6.53;;;12.70;99.90;;;;;;5052574;28;20506;-85
2022/11/13 12:07:57;;;;;;;9.20;6.80;;;12.80;99.90;;;;;;5052034;28;20474;-86
2022/11/13 12:10:45;;;;;;;11.80;6.85;;;12.90;99.90;;;;;;5051649;28;20048;-86
2022/11/13 12:13:27;;;;;;;10.63;6.78;;;13.00;99.90;;;;;;5068632;28;20047;-90
2022/11/13 12:16:03;;;;;;;7.65;6.03;;;13.30;99.90;;;;;;5067373;28;20048;-88
2022/11/13 12:18:41;;;;;;;9.45;6.60;;;13.50;99.90;;;;;;5068363;28;20137;-88
2022/11/13 12:21:21;;;;;;;10.50;5.75;;;13.50;99.90;;;;;;5052285;28;20404;-90
2022/11/13 12:24:14;;;;;;;8.63;5.97;;;13.60;99.90;;;;;;5068492;28;20040;-88
2022/11/13 12:27:02;;;;;;;8.07;5.85;;;13.70;99.90;;;;;;5068912;28;20108;-88
2022/11/13 12:29:44;;;;;;;10.70;6.07;;;13.80;99.90;;;;;;5041465;28;20071;-89
2022/11/13 12:32:13;;;;;;;7.60;6.03;;;13.80;99.90;;;;;;5068482;28;20040;-87
2022/11/13 12:34:51;;;;;;;9.20;5.88;;;13.90;99.90;;;;;;5077070;28;20048;-93
2022/11/13 12:37:26;;;;;;;9.55;6.13;;;13.80;99.90;;;;;;5054156;28;20044;-93
2022/11/13 12:40:17;;;;;;;11.63;6.25;;;13.90;99.90;;;;;;5053065;28;20582;-93
2022/11/13 12:43:25;;;;;;;8.43;6.32;;;13.90;99.90;;;;;;5052587;28;20036;-93
2022/11/13 12:45:58;;;;;;;9.73;6.45;;;14.00;99.90;;;;;;5030233;28;20516;-93
2022/11/13 12:48:45;;;;;;;12.18;6.22;;;14.10;99.90;;;;;;5051924;28;20135;-93
2022/11/13 12:51:13;;;;;;;9.32;6.68;;;14.00;99.90;;;;;;5052299;28;20834;-93
2022/11/13 12:53:54;;;;;;;7.88;6.25;;;14.00;99.90;;;;;;5051843;28;20488;-93
2022/11/13 12:56:23;;;;;;;11.02;6.50;;;13.90;99.90;;;;;;5052491;28;20036;-93